sensor_id;sensor_type;location;lat;lon;timestamp;P1;durP1;ratioP1;P2;durP2;ratioP2
25263;SDS011;13211;51.796;5.808;2023-07-20T00:02:05;15.50;;;9.85;;
25263;SDS011;13211;51.796;5.808;2023-07-20T00:04:34;13.13;;;9.63;;
25263;SDS011;13211;51.796;5.808;2023-07-20T00:07:03;17.50;;;10.25;;
25263;SDS011;13211;51.796;5.808;2023-07-20T00:09:30;15.38;;;10.07;;
25263;SDS011;13211;51.796;5.808;2023-07-20T00:11:58;17.30;;;10.90;;
25263;SDS011;13211;51.796;5.808;2023-07-20T00:14:27;14.07;;;9.85;;
25263;SDS011;13211;51.796;5.808;2023-07-20T00:16:55;16.77;;;9.57;;
25263;SDS011;13211;51.796;5.808;2023-07-20T00:19:23;18.92;;;10.27;;
25263;SDS011;13211;51.796;5.808;2023-07-20T00:21:51;14.93;;;9.80;;
25263;SDS011;13211;51.796;5.808;2023-07-20T00:24:19;15.98;;;9.95;;
25263;SDS011;13211;51.796;5.808;2023-07-20T00:26:46;15.38;;;9.45;;
25263;SDS011;13211;51.796;5.808;2023-07-20T00:29:14;15.05;;;9.50;;
25263;SDS011;13211;51.796;5.808;2023-07-20T00:31:42;13.40;;;9.38;;
25263;SDS011;13211;51.796;5.808;2023-07-20T00:34:10;14.93;;;9.70;;
25263;SDS011;13211;51.796;5.808;2023-07-20T00:36:39;13.55;;;9.40;;
25263;SDS011;13211;51.796;5.808;2023-07-20T00:39:08;12.82;;;9.73;;
25263;SDS011;13211;51.796;5.808;2023-07-20T00:41:37;18.38;;;10.48;;
25263;SDS011;13211;51.796;5.808;2023-07-20T00:44:04;17.27;;;10.43;;
25263;SDS011;13211;51.796;5.808;2023-07-20T00:46:32;17.88;;;10.45;;
25263;SDS011;13211;51.796;5.808;2023-07-20T00:49:00;18.80;;;10.52;;
25263;SDS011;13211;51.796;5.808;2023-07-20T00:51:28;15.77;;;10.32;;
25263;SDS011;13211;51.796;5.808;2023-07-20T00:53:56;16.88;;;9.95;;
25263;SDS011;13211;51.796;5.808;2023-07-20T00:56:24;19.45;;;11.18;;
25263;SDS011;13211;51.796;5.808;2023-07-20T00:58:52;18.38;;;11.23;;
25263;SDS011;13211;51.796;5.808;2023-07-20T01:01:20;20.17;;;11.60;;
25263;SDS011;13211;51.796;5.808;2023-07-20T01:03:48;22.17;;;11.88;;
25263;SDS011;13211;51.796;5.808;2023-07-20T01:06:19;20.45;;;11.73;;
25263;SDS011;13211;51.796;5.808;2023-07-20T01:11:28;15.95;;;11.32;;
25263;SDS011;13211;51.796;5.808;2023-07-20T01:14:00;18.85;;;10.73;;
25263;SDS011;13211;51.796;5.808;2023-07-20T01:16:27;17.30;;;10.48;;
25263;SDS011;13211;51.796;5.808;2023-07-20T01:18:55;17.30;;;10.88;;
25263;SDS011;13211;51.796;5.808;2023-07-20T01:21:27;15.30;;;10.45;;
25263;SDS011;13211;51.796;5.808;2023-07-20T01:24:18;17.48;;;9.82;;
25263;SDS011;13211;51.796;5.808;2023-07-20T01:29:55;16.98;;;9.65;;
25263;SDS011;13211;51.796;5.808;2023-07-20T01:32:30;14.70;;;9.40;;
25263;SDS011;13211;51.796;5.808;2023-07-20T01:34:58;14.30;;;9.10;;
25263;SDS011;13211;51.796;5.808;2023-07-20T01:37:26;13.50;;;9.00;;
25263;SDS011;13211;51.796;5.808;2023-07-20T01:39:56;13.75;;;9.23;;
25263;SDS011;13211;51.796;5.808;2023-07-20T01:42:24;15.77;;;8.73;;
25263;SDS011;13211;51.796;5.808;2023-07-20T01:44:52;11.60;;;8.32;;
25263;SDS011;13211;51.796;5.808;2023-07-20T01:47:22;13.70;;;8.93;;
25263;SDS011;13211;51.796;5.808;2023-07-20T01:49:50;12.95;;;8.15;;
25263;SDS011;13211;51.796;5.808;2023-07-20T01:52:18;14.00;;;8.43;;
25263;SDS011;13211;51.796;5.808;2023-07-20T01:54:45;10.15;;;7.85;;
25263;SDS011;13211;51.796;5.808;2023-07-20T01:57:13;10.52;;;7.43;;
25263;SDS011;13211;51.796;5.808;2023-07-20T01:59:40;9.77;;;7.00;;
25263;SDS011;13211;51.796;5.808;2023-07-20T02:02:08;10.25;;;6.47;;
25263;SDS011;13211;51.796;5.808;2023-07-20T02:04:36;9.38;;;6.38;;
25263;SDS011;13211;51.796;5.808;2023-07-20T02:07:03;10.88;;;5.95;;
25263;SDS011;13211;51.796;5.808;2023-07-20T02:09:33;10.43;;;5.68;;
25263;SDS011;13211;51.796;5.808;2023-07-20T02:12:01;7.45;;;5.28;;
25263;SDS011;13211;51.796;5.808;2023-07-20T02:14:29;7.10;;;5.22;;
25263;SDS011;13211;51.796;5.808;2023-07-20T02:16:56;8.05;;;4.97;;
25263;SDS011;13211;51.796;5.808;2023-07-20T02:19:27;7.85;;;4.63;;
25263;SDS011;13211;51.796;5.808;2023-07-20T02:21:55;5.85;;;4.10;;
25263;SDS011;13211;51.796;5.808;2023-07-20T02:24:26;6.25;;;3.90;;
25263;SDS011;13211;51.796;5.808;2023-07-20T02:29:21;6.68;;;3.60;;
25263;SDS011;13211;51.796;5.808;2023-07-20T02:31:48;7.13;;;3.80;;
25263;SDS011;13211;51.796;5.808;2023-07-20T02:34:16;5.32;;;3.40;;
25263;SDS011;13211;51.796;5.808;2023-07-20T02:36:45;5.38;;;3.20;;
25263;SDS011;13211;51.796;5.808;2023-07-20T02:39:12;4.50;;;3.00;;
25263;SDS011;13211;51.796;5.808;2023-07-20T02:41:41;4.53;;;3.20;;
25263;SDS011;13211;51.796;5.808;2023-07-20T02:44:08;7.60;;;3.35;;
25263;SDS011;13211;51.796;5.808;2023-07-20T02:46:36;4.90;;;3.45;;
25263;SDS011;13211;51.796;5.808;2023-07-20T02:49:04;9.73;;;3.00;;
25263;SDS011;13211;51.796;5.808;2023-07-20T02:51:31;8.40;;;3.50;;
25263;SDS011;13211;51.796;5.808;2023-07-20T02:53:59;6.93;;;3.30;;
25263;SDS011;13211;51.796;5.808;2023-07-20T02:56:27;7.15;;;2.90;;
25263;SDS011;13211;51.796;5.808;2023-07-20T02:58:55;5.18;;;3.28;;
25263;SDS011;13211;51.796;5.808;2023-07-20T03:01:23;4.90;;;2.97;;
25263;SDS011;13211;51.796;5.808;2023-07-20T03:03:56;4.72;;;3.25;;
25263;SDS011;13211;51.796;5.808;2023-07-20T03:06:24;4.63;;;2.80;;
25263;SDS011;13211;51.796;5.808;2023-07-20T03:08:52;4.43;;;3.10;;
25263;SDS011;13211;51.796;5.808;2023-07-20T03:11:20;3.92;;;2.83;;
25263;SDS011;13211;51.796;5.808;2023-07-20T03:13:48;8.60;;;3.60;;
25263;SDS011;13211;51.796;5.808;2023-07-20T03:16:17;3.67;;;2.78;;
25263;SDS011;13211;51.796;5.808;2023-07-20T03:18:45;4.97;;;3.08;;
25263;SDS011;13211;51.796;5.808;2023-07-20T03:21:14;4.78;;;2.92;;
25263;SDS011;13211;51.796;5.808;2023-07-20T03:23:42;7.85;;;3.30;;
25263;SDS011;13211;51.796;5.808;2023-07-20T03:26:10;4.90;;;2.97;;
25263;SDS011;13211;51.796;5.808;2023-07-20T03:28:38;5.97;;;2.65;;
25263;SDS011;13211;51.796;5.808;2023-07-20T03:31:05;3.92;;;2.80;;
25263;SDS011;13211;51.796;5.808;2023-07-20T03:33:37;5.13;;;3.22;;
25263;SDS011;13211;51.796;5.808;2023-07-20T03:36:06;5.38;;;2.90;;
25263;SDS011;13211;51.796;5.808;2023-07-20T03:38:34;6.38;;;3.22;;
25263;SDS011;13211;51.796;5.808;2023-07-20T03:41:02;8.07;;;3.20;;
25263;SDS011;13211;51.796;5.808;2023-07-20T03:43:30;4.80;;;3.15;;
25263;SDS011;13211;51.796;5.808;2023-07-20T03:45:57;5.10;;;3.30;;
25263;SDS011;13211;51.796;5.808;2023-07-20T03:48:25;5.97;;;3.10;;
25263;SDS011;13211;51.796;5.808;2023-07-20T03:50:53;3.88;;;3.03;;
25263;SDS011;13211;51.796;5.808;2023-07-20T03:53:22;4.43;;;3.22;;
25263;SDS011;13211;51.796;5.808;2023-07-20T03:55:51;6.15;;;3.45;;
25263;SDS011;13211;51.796;5.808;2023-07-20T03:58:22;6.13;;;3.40;;
25263;SDS011;13211;51.796;5.808;2023-07-20T04:00:50;4.47;;;3.28;;
25263;SDS011;13211;51.796;5.808;2023-07-20T04:03:18;3.75;;;3.05;;
25263;SDS011;13211;51.796;5.808;2023-07-20T04:05:46;5.75;;;3.40;;
25263;SDS011;13211;51.796;5.808;2023-07-20T04:08:14;4.95;;;3.20;;
25263;SDS011;13211;51.796;5.808;2023-07-20T04:10:45;6.18;;;3.20;;
25263;SDS011;13211;51.796;5.808;2023-07-20T04:13:12;5.80;;;3.25;;
25263;SDS011;13211;51.796;5.808;2023-07-20T04:15:40;3.92;;;3.35;;
25263;SDS011;13211;51.796;5.808;2023-07-20T04:18:07;7.45;;;3.45;;
25263;SDS011;13211;51.796;5.808;2023-07-20T04:20:35;6.47;;;3.60;;
25263;SDS011;13211;51.796;5.808;2023-07-20T04:23:03;6.07;;;4.18;;
25263;SDS011;13211;51.796;5.808;2023-07-20T04:25:31;6.63;;;4.03;;
25263;SDS011;13211;51.796;5.808;2023-07-20T04:28:08;5.32;;;3.80;;
25263;SDS011;13211;51.796;5.808;2023-07-20T04:30:40;8.23;;;3.95;;
25263;SDS011;13211;51.796;5.808;2023-07-20T04:33:08;5.75;;;3.60;;
25263;SDS011;13211;51.796;5.808;2023-07-20T04:35:52;7.38;;;3.45;;
25263;SDS011;13211;51.796;5.808;2023-07-20T04:38:24;7.32;;;4.75;;
25263;SDS011;13211;51.796;5.808;2023-07-20T04:41:04;5.10;;;4.50;;
25263;SDS011;13211;51.796;5.808;2023-07-20T04:43:36;9.18;;;4.75;;
25263;SDS011;13211;51.796;5.808;2023-07-20T04:46:04;9.25;;;5.70;;
25263;SDS011;13211;51.796;5.808;2023-07-20T04:48:34;8.05;;;6.35;;
25263;SDS011;13211;51.796;5.808;2023-07-20T04:51:04;10.57;;;7.00;;
25263;SDS011;13211;51.796;5.808;2023-07-20T04:53:32;8.88;;;6.10;;
25263;SDS011;13211;51.796;5.808;2023-07-20T04:56:00;15.32;;;12.65;;
25263;SDS011;13211;51.796;5.808;2023-07-20T04:58:28;12.68;;;8.57;;
25263;SDS011;13211;51.796;5.808;2023-07-20T05:00:56;9.90;;;6.47;;
25263;SDS011;13211;51.796;5.808;2023-07-20T05:03:24;8.45;;;6.78;;
25263;SDS011;13211;51.796;5.808;2023-07-20T05:05:54;10.65;;;6.88;;
25263;SDS011;13211;51.796;5.808;2023-07-20T05:08:22;9.45;;;7.05;;
25263;SDS011;13211;51.796;5.808;2023-07-20T05:10:50;12.00;;;7.22;;
25263;SDS011;13211;51.796;5.808;2023-07-20T05:13:17;11.43;;;6.38;;
25263;SDS011;13211;51.796;5.808;2023-07-20T05:15:45;10.38;;;7.03;;
25263;SDS011;13211;51.796;5.808;2023-07-20T05:18:16;9.43;;;5.95;;
25263;SDS011;13211;51.796;5.808;2023-07-20T05:20:47;10.95;;;6.97;;
25263;SDS011;13211;51.796;5.808;2023-07-20T05:23:18;12.02;;;6.68;;
25263;SDS011;13211;51.796;5.808;2023-07-20T05:25:47;7.68;;;6.22;;
25263;SDS011;13211;51.796;5.808;2023-07-20T05:28:20;9.70;;;7.10;;
25263;SDS011;13211;51.796;5.808;2023-07-20T05:30:48;10.20;;;7.07;;
25263;SDS011;13211;51.796;5.808;2023-07-20T05:33:19;8.85;;;7.03;;
25263;SDS011;13211;51.796;5.808;2023-07-20T05:35:46;9.48;;;7.60;;
25263;SDS011;13211;51.796;5.808;2023-07-20T05:38:14;9.57;;;7.60;;
25263;SDS011;13211;51.796;5.808;2023-07-20T05:40:42;12.43;;;9.35;;
25263;SDS011;13211;51.796;5.808;2023-07-20T05:43:10;12.38;;;9.68;;
25263;SDS011;13211;51.796;5.808;2023-07-20T05:45:41;10.77;;;8.85;;
25263;SDS011;13211;51.796;5.808;2023-07-20T05:48:09;14.82;;;8.80;;
25263;SDS011;13211;51.796;5.808;2023-07-20T05:50:42;10.05;;;7.72;;
25263;SDS011;13211;51.796;5.808;2023-07-20T05:53:13;9.68;;;7.57;;
25263;SDS011;13211;51.796;5.808;2023-07-20T05:55:41;10.00;;;7.88;;
25263;SDS011;13211;51.796;5.808;2023-07-20T05:58:08;11.68;;;7.50;;
25263;SDS011;13211;51.796;5.808;2023-07-20T06:00:36;11.90;;;6.97;;
25263;SDS011;13211;51.796;5.808;2023-07-20T06:03:03;7.05;;;5.85;;
25263;SDS011;13211;51.796;5.808;2023-07-20T06:05:31;8.27;;;5.88;;
25263;SDS011;13211;51.796;5.808;2023-07-20T06:07:59;8.32;;;6.00;;
25263;SDS011;13211;51.796;5.808;2023-07-20T06:10:27;8.10;;;5.65;;
25263;SDS011;13211;51.796;5.808;2023-07-20T06:12:58;9.90;;;5.47;;
25263;SDS011;13211;51.796;5.808;2023-07-20T06:15:31;6.28;;;5.13;;
25263;SDS011;13211;51.796;5.808;2023-07-20T06:17:58;8.38;;;4.88;;
25263;SDS011;13211;51.796;5.808;2023-07-20T06:20:27;8.13;;;5.10;;
25263;SDS011;13211;51.796;5.808;2023-07-20T06:22:55;6.45;;;4.82;;
25263;SDS011;13211;51.796;5.808;2023-07-20T06:25:23;8.13;;;4.95;;
25263;SDS011;13211;51.796;5.808;2023-07-20T06:27:50;8.07;;;4.75;;
25263;SDS011;13211;51.796;5.808;2023-07-20T06:30:18;9.57;;;5.43;;
25263;SDS011;13211;51.796;5.808;2023-07-20T06:32:46;9.93;;;4.72;;
25263;SDS011;13211;51.796;5.808;2023-07-20T06:35:14;4.53;;;3.55;;
25263;SDS011;13211;51.796;5.808;2023-07-20T06:37:42;3.63;;;2.92;;
25263;SDS011;13211;51.796;5.808;2023-07-20T06:40:09;6.72;;;2.65;;
25263;SDS011;13211;51.796;5.808;2023-07-20T06:42:43;3.08;;;2.20;;
25263;SDS011;13211;51.796;5.808;2023-07-20T06:45:13;3.75;;;1.80;;
25263;SDS011;13211;51.796;5.808;2023-07-20T06:47:41;3.92;;;1.60;;
25263;SDS011;13211;51.796;5.808;2023-07-20T06:50:09;2.72;;;1.40;;
25263;SDS011;13211;51.796;5.808;2023-07-20T06:52:43;2.35;;;1.20;;
25263;SDS011;13211;51.796;5.808;2023-07-20T06:55:11;3.83;;;1.38;;
25263;SDS011;13211;51.796;5.808;2023-07-20T06:57:38;3.20;;;1.27;;
25263;SDS011;13211;51.796;5.808;2023-07-20T07:00:09;2.10;;;1.58;;
25263;SDS011;13211;51.796;5.808;2023-07-20T07:02:37;5.15;;;1.58;;
25263;SDS011;13211;51.796;5.808;2023-07-20T07:07:38;3.60;;;1.60;;
25263;SDS011;13211;51.796;5.808;2023-07-20T07:10:07;2.10;;;1.27;;
25263;SDS011;13211;51.796;5.808;2023-07-20T07:12:35;3.25;;;1.73;;
25263;SDS011;13211;51.796;5.808;2023-07-20T07:15:04;2.38;;;1.40;;
25263;SDS011;13211;51.796;5.808;2023-07-20T07:17:34;3.13;;;1.40;;
25263;SDS011;13211;51.796;5.808;2023-07-20T07:20:04;1.73;;;1.30;;
25263;SDS011;13211;51.796;5.808;2023-07-20T07:22:35;2.92;;;1.40;;
25263;SDS011;13211;51.796;5.808;2023-07-20T07:25:04;2.88;;;1.20;;
25263;SDS011;13211;51.796;5.808;2023-07-20T07:27:31;3.00;;;1.45;;
25263;SDS011;13211;51.796;5.808;2023-07-20T07:30:05;4.32;;;1.20;;
25263;SDS011;13211;51.796;5.808;2023-07-20T07:32:32;2.95;;;1.20;;
25263;SDS011;13211;51.796;5.808;2023-07-20T07:35:00;6.22;;;1.30;;
25263;SDS011;13211;51.796;5.808;2023-07-20T07:37:28;1.73;;;0.85;;
25263;SDS011;13211;51.796;5.808;2023-07-20T07:40:02;1.63;;;0.80;;
25263;SDS011;13211;51.796;5.808;2023-07-20T07:42:30;1.35;;;0.80;;
25263;SDS011;13211;51.796;5.808;2023-07-20T07:44:57;4.28;;;0.93;;
25263;SDS011;13211;51.796;5.808;2023-07-20T07:47:25;5.10;;;0.80;;
25263;SDS011;13211;51.796;5.808;2023-07-20T07:49:53;2.25;;;1.20;;
25263;SDS011;13211;51.796;5.808;2023-07-20T07:52:20;4.30;;;1.10;;
25263;SDS011;13211;51.796;5.808;2023-07-20T07:54:48;3.35;;;1.25;;
25263;SDS011;13211;51.796;5.808;2023-07-20T07:57:16;2.25;;;1.20;;
25263;SDS011;13211;51.796;5.808;2023-07-20T07:59:44;6.68;;;1.33;;
25263;SDS011;13211;51.796;5.808;2023-07-20T08:02:12;2.85;;;1.50;;
25263;SDS011;13211;51.796;5.808;2023-07-20T08:04:39;3.58;;;1.60;;
25263;SDS011;13211;51.796;5.808;2023-07-20T08:07:07;2.25;;;1.25;;
25263;SDS011;13211;51.796;5.808;2023-07-20T08:09:35;2.30;;;1.33;;
25263;SDS011;13211;51.796;5.808;2023-07-20T08:12:03;2.95;;;1.40;;
25263;SDS011;13211;51.796;5.808;2023-07-20T08:14:31;4.88;;;1.63;;
25263;SDS011;13211;51.796;5.808;2023-07-20T08:16:58;2.53;;;1.20;;
25263;SDS011;13211;51.796;5.808;2023-07-20T08:19:26;4.30;;;1.10;;
25263;SDS011;13211;51.796;5.808;2023-07-20T08:21:55;2.05;;;1.10;;
25263;SDS011;13211;51.796;5.808;2023-07-20T08:24:23;1.80;;;0.60;;
25263;SDS011;13211;51.796;5.808;2023-07-20T08:26:50;1.30;;;0.80;;
25263;SDS011;13211;51.796;5.808;2023-07-20T08:29:18;0.93;;;0.70;;
25263;SDS011;13211;51.796;5.808;2023-07-20T08:31:46;1.77;;;0.80;;
25263;SDS011;13211;51.796;5.808;2023-07-20T08:34:15;7.05;;;1.10;;
25263;SDS011;13211;51.796;5.808;2023-07-20T08:36:57;2.25;;;0.80;;
25263;SDS011;13211;51.796;5.808;2023-07-20T08:39:26;2.05;;;0.60;;
25263;SDS011;13211;51.796;5.808;2023-07-20T08:41:54;1.13;;;0.63;;
25263;SDS011;13211;51.796;5.808;2023-07-20T08:44:22;1.08;;;0.57;;
25263;SDS011;13211;51.796;5.808;2023-07-20T08:46:51;1.95;;;0.60;;
25263;SDS011;13211;51.796;5.808;2023-07-20T08:49:20;1.30;;;0.60;;
25263;SDS011;13211;51.796;5.808;2023-07-20T08:51:47;0.77;;;0.50;;
25263;SDS011;13211;51.796;5.808;2023-07-20T08:54:16;1.65;;;0.63;;
25263;SDS011;13211;51.796;5.808;2023-07-20T08:56:43;1.08;;;0.70;;
25263;SDS011;13211;51.796;5.808;2023-07-20T08:59:14;1.23;;;0.70;;
25263;SDS011;13211;51.796;5.808;2023-07-20T09:01:43;4.38;;;0.90;;
25263;SDS011;13211;51.796;5.808;2023-07-20T09:04:12;0.88;;;0.60;;
25263;SDS011;13211;51.796;5.808;2023-07-20T09:06:40;1.27;;;0.45;;
25263;SDS011;13211;51.796;5.808;2023-07-20T09:09:11;1.42;;;0.77;;
25263;SDS011;13211;51.796;5.808;2023-07-20T09:11:39;1.67;;;0.73;;
25263;SDS011;13211;51.796;5.808;2023-07-20T09:14:08;4.25;;;0.80;;
25263;SDS011;13211;51.796;5.808;2023-07-20T09:16:46;2.85;;;0.90;;
25263;SDS011;13211;51.796;5.808;2023-07-20T09:19:15;4.07;;;0.85;;
25263;SDS011;13211;51.796;5.808;2023-07-20T09:21:44;1.52;;;0.70;;
25263;SDS011;13211;51.796;5.808;2023-07-20T09:24:13;2.28;;;0.70;;
25263;SDS011;13211;51.796;5.808;2023-07-20T09:26:43;2.00;;;0.70;;
25263;SDS011;13211;51.796;5.808;2023-07-20T09:29:11;1.70;;;0.68;;
25263;SDS011;13211;51.796;5.808;2023-07-20T09:31:39;1.10;;;0.95;;
25263;SDS011;13211;51.796;5.808;2023-07-20T09:34:07;3.00;;;0.93;;
25263;SDS011;13211;51.796;5.808;2023-07-20T09:36:38;1.25;;;0.80;;
25263;SDS011;13211;51.796;5.808;2023-07-20T09:39:08;1.52;;;0.70;;
25263;SDS011;13211;51.796;5.808;2023-07-20T09:41:55;2.35;;;0.70;;
25263;SDS011;13211;51.796;5.808;2023-07-20T09:44:31;2.22;;;0.95;;
25263;SDS011;13211;51.796;5.808;2023-07-20T09:47:05;1.08;;;0.60;;
25263;SDS011;13211;51.796;5.808;2023-07-20T09:49:33;1.85;;;0.80;;
25263;SDS011;13211;51.796;5.808;2023-07-20T09:52:09;2.97;;;0.70;;
25263;SDS011;13211;51.796;5.808;2023-07-20T09:54:38;1.38;;;0.70;;
25263;SDS011;13211;51.796;5.808;2023-07-20T09:57:09;2.30;;;0.80;;
25263;SDS011;13211;51.796;5.808;2023-07-20T09:59:39;2.30;;;0.70;;
25263;SDS011;13211;51.796;5.808;2023-07-20T10:02:23;1.58;;;0.60;;
25263;SDS011;13211;51.796;5.808;2023-07-20T10:04:52;1.25;;;0.50;;
25263;SDS011;13211;51.796;5.808;2023-07-20T10:07:21;1.38;;;0.65;;
25263;SDS011;13211;51.796;5.808;2023-07-20T10:09:52;1.70;;;0.65;;
25263;SDS011;13211;51.796;5.808;2023-07-20T10:12:21;0.60;;;0.50;;
25263;SDS011;13211;51.796;5.808;2023-07-20T10:14:57;1.70;;;0.88;;
25263;SDS011;13211;51.796;5.808;2023-07-20T10:17:28;1.02;;;0.60;;
25263;SDS011;13211;51.796;5.808;2023-07-20T10:19:56;1.67;;;0.55;;
25263;SDS011;13211;51.796;5.808;2023-07-20T10:22:27;1.30;;;0.57;;
25263;SDS011;13211;51.796;5.808;2023-07-20T10:25:06;1.48;;;0.47;;
25263;SDS011;13211;51.796;5.808;2023-07-20T10:27:35;1.40;;;0.55;;
25263;SDS011;13211;51.796;5.808;2023-07-20T10:30:03;0.65;;;0.52;;
25263;SDS011;13211;51.796;5.808;2023-07-20T10:32:32;2.28;;;0.68;;
25263;SDS011;13211;51.796;5.808;2023-07-20T10:34:59;2.40;;;0.50;;
25263;SDS011;13211;51.796;5.808;2023-07-20T10:42:56;2.13;;;0.80;;
25263;SDS011;13211;51.796;5.808;2023-07-20T10:46:10;2.75;;;1.02;;
25263;SDS011;13211;51.796;5.808;2023-07-20T10:48:13;2.83;;;1.02;;
25263;SDS011;13211;51.796;5.808;2023-07-20T10:50:44;1.65;;;0.95;;
25263;SDS011;13211;51.796;5.808;2023-07-20T10:53:12;2.10;;;1.00;;
25263;SDS011;13211;51.796;5.808;2023-07-20T10:55:41;1.58;;;1.00;;
25263;SDS011;13211;51.796;5.808;2023-07-20T10:58:11;1.17;;;0.82;;
25263;SDS011;13211;51.796;5.808;2023-07-20T11:03:08;2.75;;;1.20;;
25263;SDS011;13211;51.796;5.808;2023-07-20T11:05:37;3.83;;;1.20;;
25263;SDS011;13211;51.796;5.808;2023-07-20T11:08:09;2.63;;;1.40;;
25263;SDS011;13211;51.796;5.808;2023-07-20T11:10:37;2.38;;;1.30;;
25263;SDS011;13211;51.796;5.808;2023-07-20T11:18:27;2.33;;;1.20;;
25263;SDS011;13211;51.796;5.808;2023-07-20T11:20:55;2.30;;;1.00;;
25263;SDS011;13211;51.796;5.808;2023-07-20T11:23:23;4.88;;;0.93;;
25263;SDS011;13211;51.796;5.808;2023-07-20T11:25:50;2.00;;;0.90;;
25263;SDS011;13211;51.796;5.808;2023-07-20T11:28:18;3.15;;;0.95;;
25263;SDS011;13211;51.796;5.808;2023-07-20T11:30:49;3.05;;;1.55;;
25263;SDS011;13211;51.796;5.808;2023-07-20T11:33:18;3.30;;;1.20;;
25263;SDS011;13211;51.796;5.808;2023-07-20T11:35:45;2.70;;;1.10;;
25263;SDS011;13211;51.796;5.808;2023-07-20T11:38:13;1.33;;;0.90;;
25263;SDS011;13211;51.796;5.808;2023-07-20T11:40:45;2.65;;;1.17;;
25263;SDS011;13211;51.796;5.808;2023-07-20T11:43:13;2.17;;;0.90;;
25263;SDS011;13211;51.796;5.808;2023-07-20T11:45:44;3.53;;;1.08;;
25263;SDS011;13211;51.796;5.808;2023-07-20T11:48:15;1.95;;;1.00;;
25263;SDS011;13211;51.796;5.808;2023-07-20T11:50:46;1.40;;;0.90;;
25263;SDS011;13211;51.796;5.808;2023-07-20T11:53:14;2.53;;;0.93;;
25263;SDS011;13211;51.796;5.808;2023-07-20T11:55:42;2.58;;;1.02;;
25263;SDS011;13211;51.796;5.808;2023-07-20T11:58:10;2.35;;;1.00;;
25263;SDS011;13211;51.796;5.808;2023-07-20T12:00:38;2.25;;;1.20;;
25263;SDS011;13211;51.796;5.808;2023-07-20T12:03:07;2.63;;;1.40;;
25263;SDS011;13211;51.796;5.808;2023-07-20T12:05:37;2.53;;;1.30;;
25263;SDS011;13211;51.796;5.808;2023-07-20T12:08:25;2.97;;;1.15;;
25263;SDS011;13211;51.796;5.808;2023-07-20T12:10:55;2.58;;;1.17;;
25263;SDS011;13211;51.796;5.808;2023-07-20T12:13:23;2.33;;;1.40;;
25263;SDS011;13211;51.796;5.808;2023-07-20T12:15:55;2.03;;;1.30;;
25263;SDS011;13211;51.796;5.808;2023-07-20T12:18:23;2.40;;;1.05;;
25263;SDS011;13211;51.796;5.808;2023-07-20T12:20:58;1.92;;;0.90;;
25263;SDS011;13211;51.796;5.808;2023-07-20T12:23:26;1.58;;;1.10;;
25263;SDS011;13211;51.796;5.808;2023-07-20T12:25:57;2.22;;;1.27;;
25263;SDS011;13211;51.796;5.808;2023-07-20T12:28:26;4.00;;;1.30;;
25263;SDS011;13211;51.796;5.808;2023-07-20T12:30:54;1.58;;;1.10;;
25263;SDS011;13211;51.796;5.808;2023-07-20T12:33:25;1.90;;;0.90;;
25263;SDS011;13211;51.796;5.808;2023-07-20T12:36:08;1.77;;;0.93;;
25263;SDS011;13211;51.796;5.808;2023-07-20T12:38:38;2.75;;;0.85;;
25263;SDS011;13211;51.796;5.808;2023-07-20T12:41:09;3.25;;;1.10;;
25263;SDS011;13211;51.796;5.808;2023-07-20T12:43:41;2.53;;;0.70;;
25263;SDS011;13211;51.796;5.808;2023-07-20T12:46:11;3.53;;;0.90;;
25263;SDS011;13211;51.796;5.808;2023-07-20T12:48:40;1.83;;;1.10;;
25263;SDS011;13211;51.796;5.808;2023-07-20T12:51:13;1.15;;;0.90;;
25263;SDS011;13211;51.796;5.808;2023-07-20T12:53:40;2.92;;;1.20;;
25263;SDS011;13211;51.796;5.808;2023-07-20T12:56:07;3.22;;;1.50;;
25263;SDS011;13211;51.796;5.808;2023-07-20T12:58:38;1.98;;;1.00;;
25263;SDS011;13211;51.796;5.808;2023-07-20T13:01:06;2.63;;;1.20;;
25263;SDS011;13211;51.796;5.808;2023-07-20T13:03:35;1.48;;;0.93;;
25263;SDS011;13211;51.796;5.808;2023-07-20T13:06:23;1.33;;;0.80;;
25263;SDS011;13211;51.796;5.808;2023-07-20T13:08:57;3.00;;;0.90;;
25263;SDS011;13211;51.796;5.808;2023-07-20T13:11:26;3.03;;;1.40;;
25263;SDS011;13211;51.796;5.808;2023-07-20T13:13:53;2.65;;;1.20;;
25263;SDS011;13211;51.796;5.808;2023-07-20T13:16:21;3.97;;;1.15;;
25263;SDS011;13211;51.796;5.808;2023-07-20T13:18:49;2.75;;;1.05;;
25263;SDS011;13211;51.796;5.808;2023-07-20T13:21:19;1.58;;;1.05;;
25263;SDS011;13211;51.796;5.808;2023-07-20T13:23:51;1.23;;;1.00;;
25263;SDS011;13211;51.796;5.808;2023-07-20T13:26:19;2.00;;;1.00;;
25263;SDS011;13211;51.796;5.808;2023-07-20T13:28:47;1.35;;;0.85;;
25263;SDS011;13211;51.796;5.808;2023-07-20T13:31:14;5.28;;;0.70;;
25263;SDS011;13211;51.796;5.808;2023-07-20T13:33:44;1.67;;;0.93;;
25263;SDS011;13211;51.796;5.808;2023-07-20T13:36:23;3.92;;;0.80;;
25263;SDS011;13211;51.796;5.808;2023-07-20T13:38:50;1.45;;;0.77;;
25263;SDS011;13211;51.796;5.808;2023-07-20T13:41:18;1.38;;;0.80;;
25263;SDS011;13211;51.796;5.808;2023-07-20T13:43:46;2.83;;;0.95;;
25263;SDS011;13211;51.796;5.808;2023-07-20T13:46:13;3.42;;;1.45;;
25263;SDS011;13211;51.796;5.808;2023-07-20T13:49:01;3.38;;;1.58;;
25263;SDS011;13211;51.796;5.808;2023-07-20T13:51:29;3.60;;;1.50;;
25263;SDS011;13211;51.796;5.808;2023-07-20T13:53:57;3.22;;;1.80;;
25263;SDS011;13211;51.796;5.808;2023-07-20T13:56:45;2.67;;;1.63;;
25263;SDS011;13211;51.796;5.808;2023-07-20T13:59:12;3.33;;;1.80;;
25263;SDS011;13211;51.796;5.808;2023-07-20T14:01:40;2.13;;;1.58;;
25263;SDS011;13211;51.796;5.808;2023-07-20T14:04:13;6.95;;;2.45;;
25263;SDS011;13211;51.796;5.808;2023-07-20T14:06:40;5.03;;;2.13;;
25263;SDS011;13211;51.796;5.808;2023-07-20T14:09:08;3.38;;;2.40;;
25263;SDS011;13211;51.796;5.808;2023-07-20T14:11:36;4.50;;;2.80;;
25263;SDS011;13211;51.796;5.808;2023-07-20T14:14:06;5.18;;;2.58;;
25263;SDS011;13211;51.796;5.808;2023-07-20T14:16:34;3.22;;;1.75;;
25263;SDS011;13211;51.796;5.808;2023-07-20T14:19:01;3.33;;;2.10;;
25263;SDS011;13211;51.796;5.808;2023-07-20T14:21:31;4.00;;;1.80;;
25263;SDS011;13211;51.796;5.808;2023-07-20T14:23:59;4.03;;;1.60;;
25263;SDS011;13211;51.796;5.808;2023-07-20T14:26:28;3.13;;;1.73;;
25263;SDS011;13211;51.796;5.808;2023-07-20T14:28:59;5.85;;;2.25;;
25263;SDS011;13211;51.796;5.808;2023-07-20T14:31:28;3.08;;;2.00;;
25263;SDS011;13211;51.796;5.808;2023-07-20T14:33:58;2.22;;;1.80;;
25263;SDS011;13211;51.796;5.808;2023-07-20T14:36:26;4.85;;;2.13;;
25263;SDS011;13211;51.796;5.808;2023-07-20T14:38:54;4.28;;;2.22;;
25263;SDS011;13211;51.796;5.808;2023-07-20T14:41:21;3.63;;;1.67;;
25263;SDS011;13211;51.796;5.808;2023-07-20T14:43:49;4.60;;;1.55;;
25263;SDS011;13211;51.796;5.808;2023-07-20T14:46:17;3.92;;;1.90;;
25263;SDS011;13211;51.796;5.808;2023-07-20T14:51:14;3.83;;;1.30;;
25263;SDS011;13211;51.796;5.808;2023-07-20T14:53:42;2.22;;;1.13;;
25263;SDS011;13211;51.796;5.808;2023-07-20T14:56:10;2.35;;;0.80;;
25263;SDS011;13211;51.796;5.808;2023-07-20T14:58:38;3.88;;;1.00;;
25263;SDS011;13211;51.796;5.808;2023-07-20T15:01:05;1.77;;;1.02;;
25263;SDS011;13211;51.796;5.808;2023-07-20T15:03:33;1.77;;;1.02;;
25263;SDS011;13211;51.796;5.808;2023-07-20T15:06:01;4.05;;;0.80;;
25263;SDS011;13211;51.796;5.808;2023-07-20T15:08:29;4.88;;;1.27;;
25263;SDS011;13211;51.796;5.808;2023-07-20T15:10:58;3.28;;;1.30;;
25263;SDS011;13211;51.796;5.808;2023-07-20T15:13:26;3.17;;;1.25;;
25263;SDS011;13211;51.796;5.808;2023-07-20T15:15:53;2.38;;;1.20;;
25263;SDS011;13211;51.796;5.808;2023-07-20T15:18:21;2.40;;;1.10;;
25263;SDS011;13211;51.796;5.808;2023-07-20T15:21:07;2.78;;;0.98;;
25263;SDS011;13211;51.796;5.808;2023-07-20T15:23:35;1.15;;;0.80;;
25263;SDS011;13211;51.796;5.808;2023-07-20T15:26:02;2.65;;;1.10;;